createdAt,value
2019-02-07T00:00:46.931Z,95.40
2019-02-07T00:03:14.585Z,95.40
2019-02-07T00:05:42.182Z,95.40
2019-02-07T00:08:09.981Z,95.40
2019-02-07T00:10:37.811Z,95.40
2019-02-07T00:13:05.436Z,95.50
2019-02-07T00:15:33.198Z,95.50
2019-02-07T00:18:00.796Z,95.40
2019-02-07T00:20:28.565Z,95.50
2019-02-07T00:22:56.183Z,95.50
2019-02-07T00:25:23.879Z,95.50
2019-02-07T00:27:53.044Z,95.50
2019-02-07T00:30:21.108Z,95.50
2019-02-07T00:32:48.944Z,95.50
2019-02-07T00:35:16.840Z,95.60
2019-02-07T00:37:44.654Z,95.60
2019-02-07T00:40:13.666Z,95.70
2019-02-07T00:42:41.644Z,95.60
2019-02-07T00:45:12.042Z,95.60
2019-02-07T00:47:40.049Z,95.80
2019-02-07T00:50:08.731Z,95.80
2019-02-07T00:52:36.601Z,95.70
2019-02-07T00:55:05.926Z,95.70
2019-02-07T00:57:33.524Z,95.60
2019-02-07T01:00:01.320Z,95.60
2019-02-07T01:02:28.914Z,95.50
2019-02-07T01:04:56.475Z,95.50
2019-02-07T01:07:24.226Z,95.50
2019-02-07T01:09:51.974Z,95.50
2019-02-07T01:12:19.731Z,95.50
2019-02-07T01:15:01.426Z,95.40
2019-02-07T01:17:20.419Z,95.40
2019-02-07T01:19:48.039Z,95.40
2019-02-07T01:22:15.666Z,95.30
2019-02-07T01:24:43.302Z,95.30
2019-02-07T01:27:10.965Z,95.30
2019-02-07T01:29:38.654Z,95.30
2019-02-07T01:32:06.833Z,95.40
2019-02-07T01:34:34.434Z,95.40
2019-02-07T01:37:02.069Z,95.50
2019-02-07T01:39:29.841Z,95.50
2019-02-07T01:41:59.428Z,95.80
2019-02-07T01:44:27.416Z,95.60
2019-02-07T01:46:55.188Z,95.50
2019-02-07T01:49:23.381Z,95.50
2019-02-07T01:51:51.194Z,95.40
2019-02-07T01:54:18.861Z,95.40
2019-02-07T01:56:46.606Z,95.40
2019-02-07T01:59:14.376Z,95.40
2019-02-07T02:01:41.975Z,95.40
2019-02-07T02:04:09.819Z,95.40
2019-02-07T02:06:38.088Z,95.40
2019-02-07T02:09:07.344Z,95.40
2019-02-07T02:11:37.599Z,95.40
2019-02-07T02:14:06.079Z,95.40
2019-02-07T02:16:35.586Z,95.30
2019-02-07T02:19:03.364Z,95.30
2019-02-07T02:21:31.514Z,95.30
2019-02-07T02:23:59.011Z,95.40
2019-02-07T02:26:26.732Z,95.40
2019-02-07T02:28:54.412Z,95.50
2019-02-07T02:31:22.102Z,95.60
2019-02-07T02:33:50.404Z,95.60
2019-02-07T02:36:17.958Z,95.60
2019-02-07T02:38:46.165Z,95.60
2019-02-07T02:41:13.877Z,95.70
2019-02-07T02:43:41.585Z,95.60
2019-02-07T02:46:09.352Z,95.60
2019-02-07T02:48:37.057Z,95.50
2019-02-07T02:51:04.966Z,95.50
2019-02-07T02:53:35.868Z,95.50
2019-02-07T02:56:04.731Z,95.50
2019-02-07T02:58:32.689Z,95.60
2019-02-07T03:01:26.913Z,95.50
2019-02-07T03:04:08.798Z,95.50
2019-02-07T03:06:56.546Z,95.50
2019-02-07T03:09:42.497Z,95.60
2019-02-07T03:12:35.600Z,95.60
2019-02-07T03:15:34.549Z,95.70
2019-02-07T03:18:37.369Z,95.80
2019-02-07T03:21:23.631Z,95.60
2019-02-07T03:24:08.259Z,95.50
2019-02-07T03:26:54.492Z,95.50
2019-02-07T03:29:40.949Z,95.50
2019-02-07T03:32:22.478Z,95.40
2019-02-07T03:34:56.587Z,95.40
2019-02-07T03:37:51.469Z,95.30
2019-02-07T03:40:38.924Z,95.30
2019-02-07T03:43:19.619Z,95.30
2019-02-07T03:46:06.575Z,95.30
2019-02-07T03:48:51.532Z,95.30
2019-02-07T03:51:42.168Z,95.30
2019-02-07T03:54:25.348Z,95.40
2019-02-07T03:57:04.448Z,95.50
2019-02-07T03:59:50.676Z,95.50
2019-02-07T04:02:36.807Z,95.50
2019-02-07T04:05:33.932Z,95.50
2019-02-07T04:08:15.716Z,95.40
2019-02-07T04:11:16.006Z,95.30
2019-02-07T04:13:54.291Z,95.50
2019-02-07T04:16:40.967Z,95.70
2019-02-07T04:19:20.985Z,95.70
2019-02-07T04:22:13.363Z,95.60
2019-02-07T04:25:09.703Z,95.50
2019-02-07T04:28:03.382Z,95.80
2019-02-07T04:30:51.889Z,95.80
2019-02-07T04:33:45.475Z,95.70
2019-02-07T04:36:25.707Z,95.70
2019-02-07T04:39:27.862Z,95.60
2019-02-07T04:42:18.646Z,95.60
2019-02-07T04:45:17.872Z,95.60
2019-02-07T04:47:58.364Z,95.60
2019-02-07T04:50:55.173Z,95.90
2019-02-07T04:53:46.028Z,95.60
2019-02-07T04:56:36.254Z,95.70
2019-02-07T04:59:25.055Z,95.70
2019-02-07T05:02:11.959Z,95.90
2019-02-07T05:05:11.470Z,95.90
2019-02-07T05:07:58.854Z,95.90
2019-02-07T05:10:57.507Z,96.00
2019-02-07T05:13:54.140Z,95.80
2019-02-07T05:16:39.769Z,95.90
2019-02-07T05:19:17.655Z,96.00
2019-02-07T05:22:14.104Z,96.10
2019-02-07T05:25:16.675Z,96.10
2019-02-07T05:28:03.976Z,96.10
2019-02-07T05:30:50.129Z,95.90
2019-02-07T05:33:45.811Z,95.80
2019-02-07T05:36:24.761Z,95.90
2019-02-07T05:39:04.563Z,95.80
2019-02-07T05:41:42.250Z,95.80
2019-02-07T05:44:29.469Z,95.90
2019-02-07T05:47:25.418Z,95.90
2019-02-07T05:50:06.451Z,96.20
2019-02-07T05:53:00.533Z,96.20
2019-02-07T05:55:57.943Z,96.10
2019-02-07T05:58:51.152Z,96.10
2019-02-07T06:01:47.424Z,96.00
2019-02-07T06:04:32.913Z,96.00
2019-02-07T06:07:22.912Z,96.30
2019-02-07T06:10:16.345Z,96.10
2019-02-07T06:13:09.924Z,96.20
2019-02-07T06:15:57.020Z,96.20
2019-02-07T06:18:37.236Z,96.10
2019-02-07T06:21:26.672Z,96.00
2019-02-07T06:24:13.740Z,95.90
2019-02-07T06:26:52.687Z,96.00
2019-02-07T06:29:28.091Z,95.90
2019-02-07T06:32:13.913Z,95.90
2019-02-07T06:35:00.633Z,95.80
2019-02-07T06:37:36.646Z,95.80
2019-02-07T06:43:08.257Z,95.80
2019-02-07T06:45:54.686Z,95.80
2019-02-07T06:48:41.258Z,95.80
2019-02-07T06:51:29.015Z,95.80
2019-02-07T07:04:10.160Z,95.10
2019-02-07T07:06:55.659Z,94.60
2019-02-07T07:09:43.013Z,94.40
2019-02-07T07:12:36.932Z,94.00
2019-02-07T07:15:25.980Z,93.70
2019-02-07T07:18:15.882Z,93.40
2019-02-07T07:21:01.713Z,93.20
2019-02-07T07:24:03.121Z,93.20
2019-02-07T07:26:59.248Z,92.70
2019-02-07T07:29:39.450Z,92.30
2019-02-07T07:32:25.176Z,91.70
2019-02-07T07:35:20.999Z,91.10
2019-02-07T07:38:06.576Z,90.90
2019-02-07T07:40:52.793Z,90.40
2019-02-07T07:43:32.811Z,88.00
2019-02-07T07:46:38.338Z,84.60
2019-02-07T07:49:18.038Z,81.10
2019-02-07T07:52:04.498Z,76.70
2019-02-07T07:54:50.555Z,74.10
2019-02-07T07:57:29.344Z,72.40
2019-02-07T08:00:18.991Z,69.80
2019-02-07T08:03:04.410Z,65.40
2019-02-07T08:05:57.818Z,60.50
2019-02-07T08:08:43.492Z,56.40
2019-02-07T08:11:33.423Z,53.20
2019-02-07T08:14:20.739Z,50.80
2019-02-07T08:17:25.993Z,50.40
2019-02-07T08:20:19.032Z,49.10
2019-02-07T08:23:06.392Z,47.50
2019-02-07T08:25:52.970Z,46.00
2019-02-07T08:28:38.666Z,44.30
2019-02-07T08:31:24.752Z,42.40
2019-02-07T08:34:14.764Z,40.80
2019-02-07T08:36:58.115Z,40.30
2019-02-07T08:39:43.940Z,38.40
2019-02-07T08:42:32.961Z,36.80
2019-02-07T08:45:18.382Z,35.80
2019-02-07T08:48:04.012Z,34.60
2019-02-07T08:50:40.935Z,32.80
2019-02-07T08:53:19.150Z,32.40
2019-02-07T08:56:14.142Z,31.60
2019-02-07T08:58:53.045Z,31.50
2019-02-07T09:01:35.955Z,30.80
2019-02-07T09:04:23.206Z,30.80
2019-02-07T09:07:17.776Z,29.90
2019-02-07T09:10:17.031Z,29.30
2019-02-07T09:13:11.203Z,28.30
2019-02-07T09:15:51.155Z,27.60
2019-02-07T09:18:41.939Z,26.90
2019-02-07T09:21:19.201Z,26.40
2019-02-07T09:24:15.259Z,26.50
2019-02-07T09:27:03.630Z,25.90
2019-02-07T09:29:51.056Z,25.30
2019-02-07T09:32:56.183Z,24.60
2019-02-07T09:35:41.164Z,24.00
2019-02-07T09:38:20.024Z,23.70
2019-02-07T09:41:09.440Z,22.60
2019-02-07T09:43:47.811Z,22.70
2019-02-07T09:46:39.043Z,22.50
2019-02-07T09:49:17.484Z,22.00
2019-02-07T09:51:57.755Z,21.70
2019-02-07T09:54:37.222Z,21.30
2019-02-07T09:57:19.058Z,20.90
2019-02-07T10:00:09.139Z,20.80
2019-02-07T10:02:43.992Z,21.20
2019-02-07T10:05:23.965Z,19.90
2019-02-07T10:08:13.667Z,19.80
2019-02-07T10:10:59.055Z,19.70
2019-02-07T10:13:52.136Z,19.10
2019-02-07T10:16:34.270Z,19.00
2019-02-07T10:19:27.437Z,19.00
2019-02-07T10:22:12.045Z,18.90
2019-02-07T10:24:49.480Z,18.70
2019-02-07T10:27:34.651Z,18.60
2019-02-07T10:30:11.631Z,18.40
2019-02-07T10:32:50.735Z,18.20
2019-02-07T10:35:43.815Z,18.40
2019-02-07T10:38:29.712Z,18.40
2019-02-07T10:41:16.265Z,18.40
2019-02-07T10:43:51.655Z,18.30
2019-02-07T10:46:37.401Z,18.10
2019-02-07T10:49:24.543Z,18.30
2019-02-07T10:52:19.074Z,17.50
2019-02-07T10:55:05.213Z,17.60
2019-02-07T10:57:45.997Z,16.80
2019-02-07T11:00:35.237Z,16.80
2019-02-07T11:03:11.364Z,17.00
2019-02-07T11:05:57.217Z,16.90
2019-02-07T11:08:44.504Z,16.70
2019-02-07T11:11:31.730Z,16.50
2019-02-07T11:14:18.990Z,15.90
2019-02-07T11:17:17.880Z,16.00
2019-02-07T11:20:04.986Z,16.00
2019-02-07T11:22:43.476Z,15.90
2019-02-07T11:25:42.783Z,15.90
2019-02-07T11:28:25.953Z,15.70
2019-02-07T11:31:18.916Z,15.50
2019-02-07T11:34:15.138Z,15.40
2019-02-07T11:37:03.985Z,15.30
2019-02-07T11:39:56.025Z,15.10
2019-02-07T11:42:31.143Z,15.00
2019-02-07T11:45:36.604Z,15.10
2019-02-07T11:48:24.956Z,15.30
2019-02-07T11:51:08.922Z,15.10
2019-02-07T11:53:51.264Z,15.00
2019-02-07T11:56:41.468Z,15.20
2019-02-07T11:59:26.996Z,15.30
2019-02-07T12:02:09.157Z,15.60
2019-02-07T12:04:43.146Z,15.50
2019-02-07T12:07:31.173Z,15.50
2019-02-07T12:10:16.189Z,15.60
2019-02-07T12:13:01.672Z,15.50
2019-02-07T12:15:56.989Z,15.60
2019-02-07T12:18:42.728Z,15.60
2019-02-07T12:21:39.856Z,15.60
2019-02-07T12:24:32.665Z,15.80
2019-02-07T12:27:14.327Z,15.80
2019-02-07T12:30:04.955Z,15.70
2019-02-07T12:32:38.587Z,15.90
2019-02-07T12:35:27.728Z,16.40
2019-02-07T12:38:23.231Z,15.80
2019-02-07T12:40:57.274Z,15.80
2019-02-07T12:43:43.090Z,15.80
2019-02-07T12:46:41.458Z,15.60
2019-02-07T12:49:29.270Z,15.70
2019-02-07T12:52:08.864Z,15.80
2019-02-07T12:54:46.188Z,15.70
2019-02-07T12:57:32.072Z,15.70
2019-02-07T13:00:17.667Z,15.90
2019-02-07T13:03:05.302Z,15.80
2019-02-07T13:05:51.058Z,15.70
2019-02-07T13:08:44.709Z,15.70
2019-02-07T13:11:42.225Z,15.80
2019-02-07T13:14:38.436Z,15.60
2019-02-07T13:17:28.423Z,16.00
2019-02-07T13:20:13.685Z,16.20
2019-02-07T13:22:59.679Z,16.60
2019-02-07T13:25:46.512Z,16.50
2019-02-07T13:28:21.544Z,16.50
2019-02-07T13:31:06.472Z,16.40
2019-02-07T13:33:59.669Z,16.60
2019-02-07T13:36:59.400Z,16.80
2019-02-07T13:39:45.954Z,16.80
2019-02-07T13:42:37.692Z,17.00
2019-02-07T13:45:26.555Z,17.10
2019-02-07T13:48:15.607Z,17.00
2019-02-07T13:51:06.360Z,17.10
2019-02-07T13:53:54.631Z,17.20
2019-02-07T13:56:56.570Z,17.20
2019-02-07T13:59:50.190Z,17.40
2019-02-07T14:02:49.939Z,17.60
2019-02-07T14:05:38.557Z,17.50
2019-02-07T14:08:23.446Z,17.60
2019-02-07T14:11:12.431Z,18.00
2019-02-07T14:14:06.944Z,18.20
2019-02-07T14:16:57.051Z,18.10
2019-02-07T14:19:34.585Z,18.20
2019-02-07T14:22:20.791Z,18.40
2019-02-07T14:25:07.642Z,18.60
2019-02-07T14:27:53.457Z,18.80
2019-02-07T14:30:40.814Z,19.10
2019-02-07T14:33:18.571Z,19.40
2019-02-07T14:36:04.476Z,19.80
2019-02-07T14:39:10.739Z,20.20
2019-02-07T14:45:10.309Z,21.30
2019-02-07T14:47:47.033Z,21.60
2019-02-07T14:50:16.066Z,21.90
2019-02-07T14:52:44.290Z,22.30
2019-02-07T14:55:13.784Z,22.80
2019-02-07T14:57:41.940Z,23.30
2019-02-07T15:00:16.834Z,24.30
2019-02-07T15:02:44.538Z,25.50
2019-02-07T15:05:12.528Z,26.80
2019-02-07T15:07:42.985Z,28.10
2019-02-07T15:10:12.736Z,29.50
2019-02-07T15:12:40.899Z,30.60
2019-02-07T15:15:12.062Z,31.90
2019-02-07T15:17:39.738Z,34.40
2019-02-07T15:20:07.858Z,35.60
2019-02-07T15:22:35.351Z,36.00
2019-02-07T15:25:05.189Z,37.00
2019-02-07T15:27:33.128Z,38.00
2019-02-07T15:30:01.441Z,39.10
2019-02-07T15:32:30.734Z,40.50
2019-02-07T15:34:58.403Z,41.20
2019-02-07T15:37:26.160Z,42.30
2019-02-07T15:39:53.831Z,43.20
2019-02-07T15:42:21.830Z,43.90
2019-02-07T15:44:49.765Z,45.50
2019-02-07T15:47:17.889Z,46.00
2019-02-07T15:49:45.811Z,47.00
2019-02-07T15:52:14.301Z,47.50
2019-02-07T15:54:43.182Z,48.70
2019-02-07T15:57:14.146Z,50.00
2019-02-07T15:59:53.699Z,50.90
2019-02-07T16:02:32.285Z,52.10
2019-02-07T16:05:00.064Z,53.00
2019-02-07T16:07:31.101Z,53.80
2019-02-07T16:09:59.521Z,54.50
2019-02-07T16:12:30.399Z,56.20
2019-02-07T16:14:58.043Z,57.10
2019-02-07T16:17:28.178Z,57.80
2019-02-07T16:19:59.820Z,59.00
2019-02-07T16:22:27.531Z,60.70
2019-02-07T16:24:57.989Z,61.80
2019-02-07T16:27:30.013Z,62.60
2019-02-07T16:29:58.258Z,64.40
2019-02-07T16:32:26.024Z,64.80
2019-02-07T16:34:54.666Z,66.80
2019-02-07T16:37:22.882Z,68.70
2019-02-07T16:39:51.907Z,69.60
2019-02-07T16:42:19.918Z,69.80
2019-02-07T16:44:47.838Z,70.50
2019-02-07T16:47:15.270Z,72.20
2019-02-07T16:49:43.478Z,72.90
2019-02-07T16:52:11.239Z,74.10
2019-02-07T16:54:38.930Z,74.40
2019-02-07T16:57:06.766Z,74.90
2019-02-07T16:59:34.522Z,75.60
2019-02-07T17:02:02.258Z,75.70
2019-02-07T17:04:29.945Z,76.80
2019-02-07T17:06:58.647Z,80.70
2019-02-07T17:09:32.463Z,80.50
2019-02-07T17:12:00.980Z,80.20
2019-02-07T17:14:28.990Z,80.10
2019-02-07T17:16:56.772Z,80.40
2019-02-07T17:19:24.656Z,81.20
2019-02-07T17:21:53.799Z,81.10
2019-02-07T17:24:21.407Z,81.10
2019-02-07T17:26:50.384Z,82.10
2019-02-07T17:29:18.734Z,82.00
2019-02-07T17:31:46.353Z,82.30
2019-02-07T17:34:14.397Z,81.90
2019-02-07T17:36:42.079Z,82.00
2019-02-07T17:39:09.777Z,82.30
2019-02-07T17:41:38.399Z,84.20
2019-02-07T17:44:06.495Z,85.90
2019-02-07T17:46:34.649Z,85.80
2019-02-07T17:49:02.550Z,85.30
2019-02-07T17:51:30.791Z,85.60
2019-02-07T17:53:59.122Z,85.80
2019-02-07T17:56:27.420Z,86.30
2019-02-07T17:58:55.729Z,86.80
2019-02-07T18:01:25.117Z,86.20
2019-02-07T18:03:53.604Z,86.90
2019-02-07T18:06:21.360Z,87.20
2019-02-07T18:11:12.393Z,86.70
2019-02-07T18:13:42.540Z,88.40
2019-02-07T18:16:10.448Z,90.50
2019-02-07T18:18:38.547Z,90.20
2019-02-07T18:21:06.443Z,90.90
2019-02-07T18:23:34.203Z,90.00
2019-02-07T18:26:02.412Z,90.00
2019-02-07T18:28:30.599Z,90.00
2019-02-07T18:30:58.807Z,90.20
2019-02-07T18:33:26.922Z,90.40
2019-02-07T18:35:55.457Z,90.30
2019-02-07T18:38:23.892Z,90.30
2019-02-07T18:41:13.819Z,91.00
2019-02-07T18:43:42.356Z,90.60
2019-02-07T18:46:10.793Z,90.70
2019-02-07T18:48:39.005Z,90.50
2019-02-07T18:51:07.401Z,90.50
2019-02-07T18:53:35.839Z,91.00
2019-02-07T18:56:04.690Z,90.70
2019-02-07T18:58:32.805Z,90.50
2019-02-07T19:01:02.151Z,90.50
2019-02-07T19:03:33.219Z,90.60
2019-02-07T19:06:02.213Z,90.60
2019-02-07T19:08:30.679Z,92.40
2019-02-07T19:11:00.558Z,92.60
2019-02-07T19:13:31.530Z,91.80
2019-02-07T19:16:16.224Z,91.30
2019-02-07T19:18:46.698Z,91.30
2019-02-07T19:21:15.664Z,91.30
2019-02-07T19:23:43.889Z,91.20
2019-02-07T19:26:13.445Z,91.30
2019-02-07T19:28:41.620Z,91.10
2019-02-07T19:31:09.464Z,91.80
2019-02-07T19:33:37.879Z,93.10
2019-02-07T19:36:06.417Z,92.00
2019-02-07T19:38:34.898Z,91.70
2019-02-07T19:41:04.794Z,91.50
2019-02-07T19:43:33.412Z,91.50
2019-02-07T19:46:01.648Z,91.60
2019-02-07T19:48:30.876Z,91.60
2019-02-07T19:51:01.600Z,91.50
2019-02-07T19:53:30.694Z,91.50
2019-02-07T19:55:59.645Z,91.40
2019-02-07T19:58:28.809Z,91.40
2019-02-07T20:00:57.622Z,91.50
2019-02-07T20:03:25.946Z,91.40
2019-02-07T20:06:06.626Z,91.50
2019-02-07T20:08:43.850Z,91.40
2019-02-07T20:11:23.737Z,91.50
2019-02-07T20:13:52.912Z,91.40
2019-02-07T20:16:21.634Z,91.50
2019-02-07T20:18:49.997Z,91.60
2019-02-07T20:21:19.805Z,91.50
2019-02-07T20:23:47.428Z,91.50
2019-02-07T20:26:15.216Z,91.50
2019-02-07T20:28:43.061Z,91.40
2019-02-07T20:31:12.123Z,91.30
2019-02-07T20:33:40.982Z,91.20
2019-02-07T20:36:08.712Z,91.10
2019-02-07T20:38:36.656Z,91.00
2019-02-07T20:41:04.903Z,90.90
2019-02-07T20:43:36.096Z,90.80
2019-02-07T20:46:04.338Z,90.80
2019-02-07T20:48:32.484Z,90.70
2019-02-07T20:51:00.700Z,90.80
2019-02-07T20:53:31.075Z,90.60
2019-02-07T20:56:01.606Z,91.20
2019-02-07T20:58:33.374Z,90.90
2019-02-07T21:01:10.203Z,90.90
2019-02-07T21:03:45.648Z,90.90
2019-02-07T21:06:25.635Z,90.90
2019-02-07T21:08:55.482Z,90.90
2019-02-07T21:11:23.301Z,91.00
2019-02-07T21:13:53.020Z,91.10
2019-02-07T21:16:20.842Z,91.20
2019-02-07T21:18:48.582Z,91.40
2019-02-07T21:21:16.457Z,91.60
2019-02-07T21:23:44.282Z,91.90
2019-02-07T21:26:13.581Z,92.00
2019-02-07T21:28:43.189Z,91.90
2019-02-07T21:31:12.268Z,92.00
2019-02-07T21:33:39.994Z,92.00
2019-02-07T21:36:07.736Z,92.00
2019-02-07T21:38:35.662Z,92.10
2019-02-07T21:41:03.717Z,92.20
2019-02-07T21:43:31.526Z,92.60
2019-02-07T21:45:59.318Z,92.90
2019-02-07T21:48:27.125Z,93.00
2019-02-07T21:50:55.023Z,93.10
2019-02-07T21:53:23.547Z,92.70
2019-02-07T21:55:53.422Z,92.60
2019-02-07T21:58:21.180Z,92.70
2019-02-07T22:00:49.011Z,92.70
2019-02-07T22:03:17.832Z,92.60
2019-02-07T22:05:45.737Z,92.70
2019-02-07T22:08:13.614Z,92.80
2019-02-07T22:10:42.295Z,92.80
2019-02-07T22:13:10.405Z,92.80
2019-02-07T22:15:37.924Z,92.70
2019-02-07T22:18:07.983Z,92.70
2019-02-07T22:20:35.880Z,92.70
2019-02-07T22:23:04.673Z,92.70
2019-02-07T22:25:32.490Z,92.60
2019-02-07T22:28:02.166Z,92.80
2019-02-07T22:30:33.759Z,92.80
2019-02-07T22:33:02.377Z,92.70
2019-02-07T22:35:30.232Z,93.30
2019-02-07T22:37:59.066Z,93.10
2019-02-07T22:40:27.647Z,93.10
2019-02-07T22:42:55.609Z,93.40
2019-02-07T22:45:24.480Z,93.70
2019-02-07T22:47:52.236Z,93.80
2019-02-07T22:50:25.219Z,93.90
2019-02-07T22:52:56.951Z,93.80
2019-02-07T22:55:24.942Z,93.70
2019-02-07T22:57:52.807Z,93.70
2019-02-07T23:01:17.238Z,93.70
2019-02-07T23:03:51.520Z,93.80
2019-02-07T23:06:19.387Z,93.60
2019-02-07T23:08:47.089Z,93.60
2019-02-07T23:11:14.879Z,93.70
2019-02-07T23:13:42.774Z,93.80
2019-02-07T23:16:10.727Z,93.90
2019-02-07T23:18:38.683Z,94.00
2019-02-07T23:21:06.785Z,94.20
2019-02-07T23:23:34.539Z,94.20
2019-02-07T23:26:02.356Z,94.30
2019-02-07T23:28:29.942Z,94.30
2019-02-07T23:30:57.640Z,94.40
2019-02-07T23:33:25.273Z,94.30
2019-02-07T23:35:53.909Z,94.20
2019-02-07T23:38:22.877Z,94.20
2019-02-07T23:40:50.415Z,94.20
2019-02-07T23:43:17.993Z,94.20
2019-02-07T23:45:45.783Z,94.20
2019-02-07T23:48:13.454Z,94.50
2019-02-07T23:50:41.087Z,94.50
2019-02-07T23:53:14.236Z,94.40
2019-02-07T23:55:38.846Z,94.40
2019-02-07T23:58:06.612Z,94.30
